Time;durP1;ratioP1;P1;durP2;ratioP2;P2;SDS_P1;SDS_P2;PMS_P1;PMS_P2;Temp;Humidity;BMP_temperature;BMP_pressure;BME280_temperature;BME280_humidity;BME280_pressure;Samples;Min_cycle;Max_cycle;Signal;HPM_P1;HPM_P2
2022/08/30 00:02:30;;;;;;;19.33;14.90;;;;;;;-141.28;100.00;49627.59;5035469;28;20276;-76
2022/08/30 00:05:00;;;;;;;25.43;15.97;;;;;;;-141.28;100.00;49576.59;5075188;28;20196;-74
2022/08/30 00:07:29;;;;;;;18.23;14.97;;;;;;;-141.28;100.00;49502.03;5083752;28;20282;-75
2022/08/30 00:09:56;;;;;;;20.83;15.90;;;;;;;-141.28;100.00;49458.84;5094333;28;20200;-76
2022/08/30 00:12:25;;;;;;;22.00;16.77;;;;;;;-141.28;100.00;49399.97;5104448;28;20202;-75
2022/08/30 00:14:55;;;;;;;24.07;16.40;;;;;;;-141.28;100.00;49368.59;5106884;28;20217;-74
2022/08/30 00:17:22;;;;;;;23.47;16.37;;;;;;;-141.28;100.00;49348.97;5103295;28;20235;-75
2022/08/30 00:19:51;;;;;;;23.40;16.77;;;;;;;-141.28;100.00;49343.06;5095063;28;20192;-74
2022/08/30 00:22:19;;;;;;;24.67;16.63;;;;;;;-141.28;100.00;49321.50;5102348;28;20206;-75
2022/08/30 00:24:48;;;;;;;22.37;16.57;;;;;;;-141.28;100.00;49278.31;5107327;28;20194;-76
2022/08/30 00:27:15;;;;;;;18.57;15.63;;;;;;;-141.28;100.00;49266.56;5112039;28;20203;-77
2022/08/30 00:29:42;;;;;;;18.90;15.83;;;;;;;-141.28;100.00;49250.84;5107398;28;20646;-75
2022/08/30 00:32:11;;;;;;;24.23;15.73;;;;;;;-141.28;100.00;49221.41;5075268;28;20241;-76
2022/08/30 00:34:38;;;;;;;24.53;16.87;;;;;;;-141.28;100.00;49209.66;5096728;28;20278;-76
2022/08/30 00:37:07;;;;;;;20.57;15.70;;;;;;;-141.28;100.00;49184.13;5100029;28;20230;-75
2022/08/30 00:39:34;;;;;;;23.50;16.23;;;;;;;-141.28;100.00;49160.59;5104567;28;20650;-75
2022/08/30 00:42:01;;;;;;;22.03;15.60;;;;;;;-141.28;100.00;49144.91;5093074;28;20200;-76
2022/08/30 00:44:28;;;;;;;17.53;14.67;;;;;;;-141.28;100.00;49129.19;5110363;28;20195;-78
2022/08/30 00:46:55;;;;;;;17.13;14.70;;;;;;;-141.28;100.00;49133.13;5100878;28;20199;-75
2022/08/30 00:49:24;;;;;;;20.33;15.97;;;;;;;-141.28;100.00;49121.34;5098276;28;20191;-76
2022/08/30 00:51:52;;;;;;;17.67;14.10;;;;;;;-141.28;100.00;49129.19;5099740;28;20192;-75
2022/08/30 00:54:22;;;;;;;16.73;14.83;;;;;;;-141.28;100.00;49117.44;5073391;28;20199;-77
2022/08/30 00:56:50;;;;;;;21.93;16.10;;;;;;;-141.28;100.00;49135.09;5073350;28;20232;-78
2022/08/30 00:59:20;;;;;;;23.60;15.70;;;;;;;-141.28;100.00;49121.34;5079939;28;20191;-76
2022/08/30 01:01:47;;;;;;;17.87;15.07;;;;;;;-141.28;100.00;49135.09;5078536;28;20234;-74
2022/08/30 01:04:15;;;;;;;18.47;15.30;;;;;;;-141.28;100.00;49133.13;5072923;28;20197;-75
2022/08/30 01:06:42;;;;;;;23.43;15.60;;;;;;;-141.28;100.00;49137.06;5072966;28;20192;-76
2022/08/30 01:09:10;;;;;;;18.67;16.13;;;;;;;-141.28;100.00;49148.81;5081061;28;20206;-76
2022/08/30 01:11:40;;;;;;;23.30;14.87;;;;;;;-141.28;100.00;49152.75;5107475;28;20203;-75
2022/08/30 01:14:10;;;;;;;19.80;14.90;;;;;;;-141.28;100.00;49199.84;5112900;28;20202;-76
2022/08/30 01:16:39;;;;;;;17.07;15.07;;;;;;;-141.28;100.00;49227.31;5079457;28;20235;-76
2022/08/30 01:19:18;;;;;;;22.20;15.67;;;;;;;-141.28;100.00;49250.84;5072392;28;20389;-75
2022/08/30 01:21:49;;;;;;;24.87;15.70;;;;;;;-141.28;100.00;49282.25;5084720;28;20194;-76
2022/08/30 01:24:19;;;;;;;20.93;15.03;;;;;;;-141.28;100.00;49284.22;5083567;28;20563;-75
2022/08/30 01:26:48;;;;;;;19.17;15.27;;;;;;;-141.28;100.00;49294.03;5097625;28;20211;-76
2022/08/30 01:29:21;;;;;;;22.50;16.30;;;;;;;-141.28;100.00;49301.88;5103816;28;20210;-75
2022/08/30 01:31:48;;;;;;;24.80;16.23;;;;;;;-141.28;100.00;49313.66;5085114;28;20196;-74
2022/08/30 01:34:16;;;;;;;19.77;15.83;;;;;;;-141.28;100.00;49323.44;5072740;28;20200;-76
2022/08/30 01:36:46;;;;;;;18.80;15.60;;;;;;;-141.28;100.00;49358.78;5099554;28;20237;-77
2022/08/30 01:39:15;;;;;;;22.60;15.80;;;;;;;-141.28;100.00;49460.81;5100155;28;20219;-75
2022/08/30 01:41:44;;;;;;;20.67;15.57;;;;;;;-141.28;100.00;49666.84;5067999;28;20222;-76
2022/08/30 01:44:12;;;;;;;23.87;16.70;;;;;;;-141.28;100.00;49766.94;5098706;28;20198;-75
2022/08/30 01:46:44;;;;;;;21.47;16.13;;;;;;;-141.28;100.00;49796.38;5104475;28;20268;-74
2022/08/30 01:49:14;;;;;;;20.80;16.77;;;;;;;-141.28;100.00;49827.78;5090063;28;20191;-75
2022/08/30 01:51:42;;;;;;;17.50;15.70;;;;;;;-141.28;100.00;49831.69;5087391;28;20200;-75
2022/08/30 01:54:11;;;;;;;18.37;15.77;;;;;;;-141.28;100.00;49825.81;5091339;28;20202;-76
2022/08/30 01:56:38;;;;;;;22.07;15.47;;;;;;;-141.28;100.00;49802.25;5090042;28;20238;-76
2022/08/30 01:59:08;;;;;;;22.97;15.93;;;;;;;-141.28;100.00;49847.41;5074348;28;20200;-75
2022/08/30 02:01:38;;;;;;;20.40;14.73;;;;;;;-141.28;100.00;49847.41;5076181;28;20200;-75
2022/08/30 02:04:07;;;;;;;20.47;15.50;;;;;;;-141.28;100.00;49867.03;5081273;28;20199;-76
2022/08/30 02:06:34;;;;;;;20.43;16.07;;;;;;;-141.28;100.00;49855.25;5075581;28;20211;-76
2022/08/30 02:09:01;;;;;;;21.80;15.40;;;;;;;-141.28;100.00;49847.41;5071682;28;20241;-76
2022/08/30 02:11:29;;;;;;;21.23;16.63;;;;;;;-141.28;100.00;49764.97;5072869;28;20235;-77
2022/08/30 02:13:56;;;;;;;21.67;16.33;;;;;;;-141.28;100.00;49857.22;5071903;28;20192;-76
2022/08/30 02:16:25;;;;;;;19.23;15.67;;;;;;;-141.28;100.00;49851.31;5072862;28;20228;-76
2022/08/30 02:18:53;;;;;;;26.57;16.63;;;;;;;-141.28;100.00;49841.50;5088896;28;20200;-76
2022/08/30 02:21:20;;;;;;;20.63;17.40;;;;;;;-141.28;100.00;49839.56;5077958;28;20607;-75
2022/08/30 02:23:47;;;;;;;23.87;15.63;;;;;;;-141.28;100.00;49835.63;5100447;28;20205;-76
2022/08/30 02:26:16;;;;;;;22.87;16.10;;;;;;;-141.28;100.00;49814.03;5097342;28;20225;-77
2022/08/30 02:28:44;;;;;;;18.07;14.90;;;;;;;-141.28;100.00;49804.22;5102144;28;20195;-76
2022/08/30 02:31:12;;;;;;;19.47;13.03;;;;;;;-141.28;100.00;49776.75;5090089;28;20203;-75
2022/08/30 02:33:42;;;;;;;18.93;12.23;;;;;;;-141.28;100.00;49851.31;5088559;28;20206;-75
2022/08/30 02:36:09;;;;;;;15.27;11.33;;;;;;;-141.28;100.00;49827.78;5104688;28;20195;-75
2022/08/30 02:38:37;;;;;;;15.47;10.90;;;;;;;-141.28;100.00;49847.41;5073753;28;20219;-76
2022/08/30 02:41:04;;;;;;;16.33;10.90;;;;;;;-141.28;100.00;49870.94;5087728;28;20199;-77
2022/08/30 02:43:31;;;;;;;14.83;10.73;;;;;;;-141.28;100.00;49898.44;5083027;28;20192;-76
2022/08/30 02:45:59;;;;;;;16.43;10.97;;;;;;;-141.28;100.00;49910.19;5084871;28;20268;-76
2022/08/30 02:48:26;;;;;;;14.83;10.40;;;;;;;-141.28;100.00;49933.75;5071003;28;20252;-75
2022/08/30 02:50:54;;;;;;;21.13;10.77;;;;;;;-141.28;100.00;49939.63;5071431;28;20195;-75
2022/08/30 02:53:21;;;;;;;14.20;11.00;;;;;;;-141.28;100.00;49953.38;5071170;28;20197;-74
2022/08/30 02:55:50;;;;;;;15.93;10.53;;;;;;;-141.28;100.00;49945.53;5071339;28;20557;-75
2022/08/30 02:58:17;;;;;;;14.87;10.53;;;;;;;-141.28;100.00;49949.44;5083750;28;20227;-74
2022/08/30 03:00:44;;;;;;;19.10;11.43;;;;;;;-141.28;100.00;49949.44;5075325;28;20198;-76
2022/08/30 03:03:12;;;;;;;16.47;11.97;;;;;;;-141.28;100.00;49906.28;5087559;28;20203;-75
2022/08/30 03:05:47;;;;;;;19.03;10.93;;;;;;;-141.28;100.00;49969.06;5100601;28;20228;-76
2022/08/30 03:08:17;;;;;;;18.40;11.97;;;;;;;-141.28;100.00;50027.97;5112776;28;20203;-76
2022/08/30 03:10:45;;;;;;;12.53;11.20;;;;;;;-141.28;100.00;49984.78;5094463;28;20204;-75
2022/08/30 03:13:12;;;;;;;14.13;11.47;;;;;;;-141.28;100.00;49973.00;5095779;28;20200;-75
2022/08/30 03:15:40;;;;;;;15.90;11.73;;;;;;;-141.28;100.00;49990.66;5105007;28;20235;-75
2022/08/30 03:18:09;;;;;;;14.97;11.13;;;;;;;-141.28;100.00;49978.88;5107921;28;20593;-75
2022/08/30 03:20:37;;;;;;;17.87;13.30;;;;;;;-141.28;100.00;50004.41;5104484;28;20280;-75
2022/08/30 03:23:04;;;;;;;22.80;13.13;;;;;;;-141.28;100.00;50020.09;5096038;28;20291;-75
2022/08/30 03:25:33;;;;;;;17.73;13.07;;;;;;;-141.28;100.00;50008.34;5113531;28;20191;-75
2022/08/30 03:28:01;;;;;;;20.30;13.97;;;;;;;-141.28;100.00;50000.47;5095974;28;20203;-76
2022/08/30 03:30:28;;;;;;;21.33;15.63;;;;;;;-141.28;100.00;49984.78;5094810;28;20553;-76
2022/08/30 03:32:55;;;;;;;34.93;16.90;;;;;;;-141.28;100.00;49984.78;5113335;28;20191;-75
2022/08/30 03:35:24;;;;;;;27.67;17.40;;;;;;;-141.28;100.00;49961.22;5101202;28;20226;-75
2022/08/30 03:37:52;;;;;;;24.73;17.40;;;;;;;-141.28;100.00;49957.31;5099130;28;20230;-75
2022/08/30 03:40:21;;;;;;;27.73;17.33;;;;;;;-141.28;100.00;49929.81;5113336;28;20272;-77
2022/08/30 03:42:49;;;;;;;22.93;16.07;;;;;;;-141.28;100.00;49918.06;5099709;28;20566;-76
2022/08/30 03:45:18;;;;;;;22.13;15.43;;;;;;;-141.28;100.00;49865.06;5111336;28;20198;-75
2022/08/30 03:47:46;;;;;;;17.83;15.93;;;;;;;-141.28;100.00;49816.00;5099924;28;20206;-76
2022/08/30 03:50:15;;;;;;;19.30;15.53;;;;;;;-141.28;100.00;49823.84;5093949;28;20206;-77
2022/08/30 03:52:44;;;;;;;18.90;14.47;;;;;;;-141.28;100.00;49784.59;5093833;28;20558;-76
2022/08/30 03:55:12;;;;;;;24.20;15.43;;;;;;;-141.28;100.00;49768.91;5087618;28;20192;-75
2022/08/30 03:57:41;;;;;;;20.33;15.90;;;;;;;-141.28;100.00;49763.00;5073793;28;20232;-76
2022/08/30 04:00:12;;;;;;;19.33;15.20;;;;;;;-141.28;100.00;49776.75;5073694;28;20196;-76
2022/08/30 04:02:40;;;;;;;17.63;13.00;;;;;;;-141.28;100.00;49713.94;5074529;28;20207;-75
2022/08/30 04:05:08;;;;;;;14.77;12.97;;;;;;;-141.28;100.00;49766.94;5106324;28;20195;-77
2022/08/30 04:07:37;;;;;;;21.77;12.53;;;;;;;-141.28;100.00;49804.22;5079589;28;20231;-75
2022/08/30 04:10:05;;;;;;;16.00;10.93;;;;;;;-141.28;100.00;49831.69;5073016;28;20196;-76
2022/08/30 04:12:32;;;;;;;17.43;11.17;;;;;;;-141.28;100.00;49823.84;5087559;28;20192;-76
2022/08/30 04:15:00;;;;;;;16.07;10.53;;;;;;;-141.28;100.00;49882.72;5073831;28;20204;-76
2022/08/30 04:17:29;;;;;;;15.10;10.73;;;;;;;-141.28;100.00;49902.34;5073419;28;20236;-75
2022/08/30 04:19:57;;;;;;;15.67;10.43;;;;;;;-141.28;100.00;49914.13;5073432;28;20200;-78
2022/08/30 04:22:24;;;;;;;14.83;11.00;;;;;;;-141.28;100.00;49941.59;5073288;28;20193;-75
2022/08/30 04:24:51;;;;;;;12.73;10.83;;;;;;;-141.28;100.00;49949.44;5073329;28;20205;-74
2022/08/30 04:27:19;;;;;;;14.80;10.70;;;;;;;-141.28;100.00;49990.66;5076862;28;20572;-76
2022/08/30 04:29:47;;;;;;;14.20;11.40;;;;;;;-141.28;100.00;50014.22;5090716;28;20626;-78
2022/08/30 04:32:16;;;;;;;15.50;11.00;;;;;;;-141.28;100.00;50031.88;5092824;28;20248;-76
2022/08/30 04:34:46;;;;;;;16.13;10.53;;;;;;;-141.28;100.00;50086.84;5090994;28;20253;-75
2022/08/30 04:37:15;;;;;;;20.57;11.60;;;;;;;-141.28;100.00;50077.03;5072859;28;20220;-76
2022/08/30 04:39:45;;;;;;;15.83;11.53;;;;;;;-141.28;100.00;50067.22;5073545;28;21219;-75
2022/08/30 04:42:12;;;;;;;18.03;10.67;;;;;;;-141.28;100.00;50092.72;5073626;28;20192;-75
2022/08/30 04:44:39;;;;;;;15.23;11.40;;;;;;;-141.28;100.00;50110.38;5073485;28;20670;-76
2022/08/30 04:47:07;;;;;;;19.47;11.50;;;;;;;-141.28;100.00;50102.53;5083724;28;20191;-75
2022/08/30 04:49:35;;;;;;;21.80;12.93;;;;;;;-141.28;100.00;50100.56;5079264;28;20191;-76
2022/08/30 04:52:05;;;;;;;16.37;11.53;;;;;;;-141.28;100.00;50126.09;5103354;28;20191;-75
2022/08/30 04:54:32;;;;;;;16.70;11.67;;;;;;;-141.28;100.00;50135.91;5097240;28;20202;-75
2022/08/30 04:56:59;;;;;;;15.30;11.73;;;;;;;-141.28;100.00;50161.41;5112705;28;20199;-75
2022/08/30 04:59:30;;;;;;;18.70;12.33;;;;;;;-141.28;100.00;50169.28;5073953;28;20231;-75
2022/08/30 05:01:57;;;;;;;16.73;12.20;;;;;;;-141.28;100.00;50157.50;5104128;28;20575;-76
2022/08/30 05:04:25;;;;;;;16.67;12.93;;;;;;;-141.28;100.00;50161.41;5104024;28;20246;-76
2022/08/30 05:06:53;;;;;;;24.97;12.47;;;;;;;-141.28;100.00;50147.69;5092654;28;20201;-74
2022/08/30 05:09:21;;;;;;;20.50;12.77;;;;;;;-141.28;100.00;50130.00;5111350;28;20230;-76
2022/08/30 05:11:51;;;;;;;26.37;14.37;;;;;;;-141.28;100.00;50149.63;5111082;28;20194;-75
2022/08/30 05:14:18;;;;;;;22.90;14.40;;;;;;;-141.28;100.00;50186.94;5105490;28;20187;-77
2022/08/30 05:16:47;;;;;;;32.37;15.17;;;;;;;-141.28;100.00;50192.81;5104739;28;20230;-74
2022/08/30 05:19:14;;;;;;;28.30;13.97;;;;;;;-141.28;100.00;50212.44;5091887;28;20227;-75
2022/08/30 05:21:44;;;;;;;18.53;14.20;;;;;;;-141.28;100.00;50228.16;5092774;28;20276;-74
2022/08/30 05:24:11;;;;;;;31.60;15.17;;;;;;;-141.28;100.00;50259.56;5112200;28;20195;-74
2022/08/30 05:26:41;;;;;;;24.10;14.00;;;;;;;-141.28;100.00;50277.22;5095482;28;20203;-75
2022/08/30 05:29:08;;;;;;;32.53;14.80;;;;;;;-141.28;100.00;50275.25;5091401;28;20581;-76
2022/08/30 05:31:36;;;;;;;25.30;14.93;;;;;;;-141.28;100.00;50283.09;5084252;28;20199;-76
2022/08/30 05:34:05;;;;;;;25.20;15.37;;;;;;;-141.28;100.00;50279.19;5053897;28;20229;-74
2022/08/30 05:36:35;;;;;;;21.57;14.73;;;;;;;-141.28;100.00;50287.03;5079423;28;20226;-75
2022/08/30 05:39:04;;;;;;;23.33;15.07;;;;;;;-141.28;100.00;50314.50;5094013;28;20229;-75
2022/08/30 05:41:31;;;;;;;23.60;15.20;;;;;;;-141.28;100.00;50289.00;5074352;28;20576;-75
2022/08/30 05:44:01;;;;;;;18.40;14.33;;;;;;;-141.28;100.00;50326.28;5073769;28;20198;-75
2022/08/30 05:46:32;;;;;;;23.57;14.23;;;;;;;-141.28;100.00;50328.25;5080045;28;20199;-77
2022/08/30 05:49:00;;;;;;;25.57;14.90;;;;;;;-141.28;100.00;50318.44;5104581;28;20229;-75
2022/08/30 05:51:30;;;;;;;22.43;13.97;;;;;;;-141.28;100.00;50361.63;5105465;28;20194;-75
2022/08/30 05:53:59;;;;;;;19.83;14.20;;;;;;;-141.28;100.00;50365.53;5112449;28;20195;-75
2022/08/30 05:56:28;;;;;;;22.10;14.00;;;;;;;-141.28;100.00;50381.25;5091682;28;20280;-75
2022/08/30 05:58:55;;;;;;;25.93;14.60;;;;;;;-141.28;100.00;50391.06;5091446;28;20231;-74
2022/08/30 06:01:26;;;;;;;26.67;17.17;;;;;;;-141.28;100.00;50385.16;5085632;28;20193;-75
2022/08/30 06:03:55;;;;;;;38.07;18.10;;;;;;;-141.28;100.00;50381.25;5073213;28;20250;-76
2022/08/30 06:06:22;;;;;;;31.27;17.40;;;;;;;-141.28;100.00;50381.25;5088040;28;20191;-76
2022/08/30 06:08:50;;;;;;;26.83;17.90;;;;;;;-141.28;100.00;50365.53;5096343;28;20198;-75
2022/08/30 06:11:21;;;;;;;25.97;16.43;;;;;;;-141.28;100.00;50400.88;5091824;28;20573;-77
2022/08/30 06:13:50;;;;;;;23.43;16.87;;;;;;;-141.28;100.00;50396.94;5091046;28;20208;-75
2022/08/30 06:16:21;;;;;;;28.53;17.03;;;;;;;-141.28;100.00;50424.44;5073657;28;20722;-76
2022/08/30 06:18:53;;;;;;;29.77;15.97;;;;;;;-141.28;100.00;50467.59;5083636;28;20218;-76
2022/08/30 06:21:22;;;;;;;25.60;15.73;;;;;;;-141.28;100.00;50459.75;5111865;28;20376;-74
2022/08/30 06:23:51;;;;;;;22.47;16.67;;;;;;;-141.28;100.00;50463.69;5085440;28;20194;-77
2022/08/30 06:26:23;;;;;;;22.40;16.10;;;;;;;-141.28;100.00;50485.28;5097138;28;20672;-76
2022/08/30 06:28:51;;;;;;;25.33;15.93;;;;;;;-141.28;100.00;50506.88;5103181;28;20203;-74
2022/08/30 06:31:20;;;;;;;25.37;16.13;;;;;;;-141.28;100.00;50491.16;5073235;28;20200;-76
2022/08/30 06:33:50;;;;;;;27.17;17.50;;;;;;;-141.28;100.00;50416.56;5080094;28;20200;-76
2022/08/30 06:36:19;;;;;;;23.40;16.40;;;;;;;-141.28;100.00;50275.25;5101912;28;20647;-75
2022/08/30 06:38:47;;;;;;;24.93;16.63;;;;;;;-141.28;100.00;50137.88;5102107;28;20230;-76
2022/08/30 06:41:17;;;;;;;23.40;16.20;;;;;;;-141.28;100.00;50061.31;5088110;28;20188;-76
2022/08/30 06:43:48;;;;;;;22.53;15.73;;;;;;;-141.28;100.00;49945.53;5088368;28;20211;-75
2022/08/30 06:46:18;;;;;;;22.57;15.87;;;;;;;-141.28;100.00;49878.81;5075024;28;20200;-75
2022/08/30 06:48:45;;;;;;;20.57;15.80;;;;;;;-141.28;100.00;49827.78;5090058;28;20210;-76
2022/08/30 06:51:19;;;;;;;22.27;16.07;;;;;;;-141.28;100.00;49812.06;5095155;28;20672;-75
2022/08/30 06:53:47;;;;;;;23.10;17.00;;;;;;;-141.28;100.00;49788.53;5098179;28;20199;-77
2022/08/30 06:56:15;;;;;;;32.43;17.53;;;;;;;-141.28;100.00;49745.34;5080856;28;20218;-77
2022/08/30 06:58:42;;;;;;;27.97;16.57;;;;;;;-141.28;100.00;49749.28;5090294;28;20230;-75
2022/08/30 07:01:13;;;;;;;25.03;16.93;;;;;;;-141.28;100.00;49770.88;5095741;28;20196;-75
2022/08/30 07:03:40;;;;;;;29.40;17.00;;;;;;;-141.28;100.00;49753.19;5107735;28;20203;-75
2022/08/30 07:06:08;;;;;;;25.83;17.17;;;;;;;-141.28;100.00;49784.59;5104309;28;20203;-76
2022/08/30 07:08:39;;;;;;;29.80;17.07;;;;;;;-141.28;100.00;49772.81;5082972;28;20207;-73
2022/08/30 07:11:08;;;;;;;28.37;16.57;;;;;;;-141.28;100.00;49766.94;5083081;28;20210;-75
2022/08/30 07:13:37;;;;;;;26.03;16.77;;;;;;;-141.28;100.00;49784.59;5085558;28;20200;-75
2022/08/30 07:16:09;;;;;;;28.53;17.10;;;;;;;-141.28;100.00;49810.13;5105616;28;20578;-75
2022/08/30 07:18:53;;;;;;;21.77;16.37;;;;;;;-141.28;100.00;49761.06;5096070;28;20223;-75
2022/08/30 07:21:22;;;;;;;21.73;16.63;;;;;;;-141.28;100.00;49810.13;5081339;28;20215;-74
2022/08/30 07:23:54;;;;;;;21.20;15.73;;;;;;;-141.28;100.00;49772.81;5106993;28;20653;-76
2022/08/30 07:26:25;;;;;;;23.93;17.43;;;;;;;-141.28;100.00;49772.81;5114807;28;20194;-75
2022/08/30 07:28:53;;;;;;;21.03;17.10;;;;;;;-141.28;100.00;49764.97;5086388;28;20549;-75
2022/08/30 07:31:22;;;;;;;25.97;16.97;;;;;;;-141.28;100.00;49812.06;5093084;28;20204;-74
2022/08/30 07:33:49;;;;;;;24.20;16.67;;;;;;;-141.28;100.00;49749.28;5107061;28;20194;-75
2022/08/30 07:36:18;;;;;;;25.70;17.37;;;;;;;-141.28;100.00;49745.34;5105399;28;20234;-76
2022/08/30 07:38:46;;;;;;;21.37;16.20;;;;;;;-141.28;100.00;49719.84;5076989;28;20233;-74
2022/08/30 07:41:20;;;;;;;19.93;15.93;;;;;;;-141.28;100.00;49763.00;5085184;28;20222;-76
2022/08/30 07:43:49;;;;;;;22.87;16.40;;;;;;;-141.28;100.00;49739.47;5098732;28;20195;-78
2022/08/30 07:46:18;;;;;;;28.73;17.23;;;;;;;-141.28;100.00;49725.72;5084561;28;20207;-75
2022/08/30 07:48:46;;;;;;;25.53;17.47;;;;;;;-141.28;100.00;49729.66;5080187;28;20195;-74
2022/08/30 07:51:15;;;;;;;26.30;17.80;;;;;;;-141.28;100.00;49731.63;5086131;28;20204;-76
2022/08/30 07:53:43;;;;;;;24.80;17.17;;;;;;;-141.28;100.00;49737.50;5097142;28;20214;-75
2022/08/30 07:56:11;;;;;;;24.13;16.00;;;;;;;-141.28;100.00;49741.44;5088180;28;20200;-74
2022/08/30 07:58:41;;;;;;;25.50;17.13;;;;;;;-141.28;100.00;49741.44;5073620;28;20223;-74
2022/08/30 08:01:11;;;;;;;26.23;17.70;;;;;;;-141.28;100.00;49729.66;5091943;28;20654;-76
2022/08/30 08:03:41;;;;;;;24.00;16.60;;;;;;;-141.28;100.00;49749.28;5087322;28;20212;-76
2022/08/30 08:06:11;;;;;;;22.40;16.37;;;;;;;-141.28;100.00;49745.34;5080223;28;20203;-75
2022/08/30 08:08:40;;;;;;;26.43;16.03;;;;;;;-141.28;100.00;49719.84;5073792;28;20207;-73
2022/08/30 08:11:08;;;;;;;21.93;16.17;;;;;;;-141.28;100.00;49719.84;5073719;28;20200;-75
2022/08/30 08:13:37;;;;;;;24.10;16.03;;;;;;;-141.28;100.00;49729.66;5074227;28;20204;-75
2022/08/30 08:16:06;;;;;;;23.00;15.77;;;;;;;-141.28;100.00;49715.91;5074433;28;20291;-76
2022/08/30 08:18:33;;;;;;;24.83;15.90;;;;;;;-141.28;100.00;49753.19;5073775;28;20215;-77
2022/08/30 08:21:01;;;;;;;24.70;16.97;;;;;;;-141.28;100.00;49741.44;5074447;28;20291;-75
2022/08/30 08:23:29;;;;;;;28.17;16.77;;;;;;;-141.28;100.00;49729.66;5065324;28;20641;-76
2022/08/30 08:25:56;;;;;;;24.87;17.37;;;;;;;-141.28;100.00;49706.09;5078657;28;20660;-75
2022/08/30 08:28:24;;;;;;;20.97;16.87;;;;;;;-141.28;100.00;49729.66;5073470;28;20558;-75
2022/08/30 08:30:52;;;;;;;25.80;18.67;;;;;;;-141.28;100.00;49729.66;5087133;28;20207;-76
2022/08/30 08:33:21;;;;;;;31.87;18.03;;;;;;;-141.28;100.00;49731.63;5072763;28;20570;-75
2022/08/30 08:35:48;;;;;;;23.50;18.57;;;;;;;-141.28;100.00;49733.56;5086335;28;20248;-76
2022/08/30 08:38:16;;;;;;;23.30;17.97;;;;;;;-141.28;100.00;49719.84;5072649;28;20216;-74
2022/08/30 08:40:55;;;;;;;24.00;20.07;;;;;;;-141.28;100.00;49808.16;5073395;28;20234;-75
2022/08/30 08:43:25;;;;;;;28.03;20.70;;;;;;;-141.28;100.00;49876.84;5054955;28;20204;-75
2022/08/30 08:46:02;;;;;;;26.77;20.80;;;;;;;-141.28;100.00;49890.56;5073139;28;20283;-76
2022/08/30 08:48:34;;;;;;;30.70;20.43;;;;;;;-141.28;100.00;49937.69;5086423;28;20205;-75
2022/08/30 08:53:55;;;;;;;31.17;19.37;;;;;;;-141.28;100.00;50041.69;5102918;28;20337;-75
2022/08/30 08:56:22;;;;;;;25.37;19.00;;;;;;;-141.28;100.00;49961.22;5085258;28;20699;-76
2022/08/30 08:58:52;;;;;;;21.77;16.90;;;;;;;-141.28;100.00;49961.22;5080367;28;20215;-75
2022/08/30 09:01:22;;;;;;;29.10;17.03;;;;;;;-141.28;100.00;49902.34;5107509;28;20574;-77
2022/08/30 09:03:52;;;;;;;22.30;16.57;;;;;;;-141.28;100.00;49865.06;5113057;28;20197;-76
2022/08/30 09:06:28;;;;;;;30.27;16.43;;;;;;;-141.28;100.00;49800.31;5099534;28;20681;-77
2022/08/30 09:08:56;;;;;;;20.37;15.43;;;;;;;-141.28;100.00;49784.59;5093518;28;20209;-75
2022/08/30 09:11:27;;;;;;;20.73;15.63;;;;;;;-141.28;100.00;49823.84;5087244;28;20203;-75
2022/08/30 09:13:55;;;;;;;24.13;13.43;;;;;;;-141.28;100.00;50014.22;5112705;28;20191;-77
2022/08/30 09:16:56;;;;;;;16.87;12.50;;;;;;;-141.28;100.00;50365.53;5104155;28;20255;-75
2022/08/30 09:19:45;;;;;;;15.73;11.27;;;;;;;-141.28;100.00;50714.94;5097349;28;20249;-75
2022/08/30 09:22:21;;;;;;;20.47;10.17;;;;;;;-141.28;100.00;50832.72;5086953;28;20650;-75
2022/08/30 09:24:51;;;;;;;22.20;12.23;;;;;;;-141.28;100.00;50836.66;5094374;28;20200;-77
2022/08/30 09:27:25;;;;;;;20.47;12.73;;;;;;;-141.28;100.00;50985.84;5076171;28;20198;-76
2022/08/30 09:30:06;;;;;;;22.43;14.53;;;;;;;-141.28;100.00;51080.06;5088208;28;20195;-75
2022/08/30 09:32:38;;;;;;;20.90;15.40;;;;;;;-141.28;100.00;51142.91;5104841;28;20197;-76
2022/08/30 09:35:12;;;;;;;23.13;15.57;;;;;;;-141.28;100.00;51211.63;5101710;28;20199;-74
2022/08/30 09:37:46;;;;;;;21.83;14.90;;;;;;;-141.28;100.00;51243.03;5092951;28;20310;-75
2022/08/30 09:40:17;;;;;;;24.33;14.83;;;;;;;-141.28;100.00;51260.69;5091828;28;20260;-75
2022/08/30 09:43:00;;;;;;;19.77;13.50;;;;;;;-141.28;100.00;51260.69;5084682;28;20194;-76
2022/08/30 09:45:31;;;;;;;20.03;13.53;;;;;;;-141.28;100.00;51203.75;5080792;28;20226;-77
2022/08/30 09:47:58;;;;;;;20.20;13.03;;;;;;;-141.28;100.00;51229.28;5072534;28;20246;-76
2022/08/30 09:50:35;;;;;;;21.67;14.57;;;;;;;-141.28;100.00;51354.94;5077045;28;20249;-75
2022/08/30 09:53:10;;;;;;;22.93;13.33;;;;;;;-141.28;100.00;51319.59;5093233;28;20203;-75
2022/08/30 09:55:55;;;;;;;18.03;14.23;;;;;;;-141.28;100.00;51323.53;5108693;28;20212;-77
2022/08/30 09:58:36;;;;;;;19.53;13.10;;;;;;;-141.28;100.00;51296.03;5091991;28;20212;-76
2022/08/30 10:01:12;;;;;;;17.97;13.70;;;;;;;-141.28;100.00;51376.53;5092622;28;20211;-75
2022/08/30 10:03:47;;;;;;;20.00;14.13;;;;;;;-141.28;100.00;51498.28;5073103;28;20203;-76
2022/08/30 10:06:28;;;;;;;22.33;13.07;;;;;;;-141.28;100.00;51392.25;5072016;28;20207;-74
2022/08/30 10:09:06;;;;;;;23.70;11.97;;;;;;;-141.28;100.00;51351.00;5086304;28;20236;-76
2022/08/30 10:11:42;;;;;;;20.83;11.77;;;;;;;-141.28;100.00;51264.63;5075985;28;20203;-75
2022/08/30 10:14:32;;;;;;;17.93;11.80;;;;;;;-141.28;100.00;51303.88;5076797;28;20257;-76
2022/08/30 10:17:03;;;;;;;21.10;12.73;;;;;;;-141.28;100.00;51315.66;5075201;28;20237;-78
2022/08/30 10:19:45;;;;;;;18.83;12.37;;;;;;;-141.28;100.00;51335.31;5075652;28;20219;-75
2022/08/30 10:22:19;;;;;;;19.10;13.13;;;;;;;-141.28;100.00;51313.72;5086871;28;20249;-76
2022/08/30 10:24:53;;;;;;;18.20;12.70;;;;;;;-141.28;100.00;51315.66;5090760;28;20620;-75
2022/08/30 10:27:26;;;;;;;20.63;11.67;;;;;;;-141.28;100.00;51239.09;5076040;28;20211;-75
2022/08/30 10:29:59;;;;;;;20.13;12.00;;;;;;;-141.28;100.00;51288.19;5082720;28;20201;-76
2022/08/30 10:32:30;;;;;;;21.47;13.23;;;;;;;-141.28;100.00;51256.78;5087548;28;20266;-76
2022/08/30 10:35:03;;;;;;;19.90;11.53;;;;;;;-141.28;100.00;51243.03;5108298;28;20200;-76
2022/08/30 10:37:38;;;;;;;23.63;12.57;;;;;;;-141.28;100.00;51276.41;5107982;28;20199;-75
2022/08/30 10:42:56;;;;;;;21.67;12.43;;;;;;;-141.28;100.00;51225.34;5072656;28;20233;-75
2022/08/30 10:45:25;;;;;;;24.33;12.50;;;;;;;-141.28;100.00;51191.97;5083810;28;20195;-76
2022/08/30 10:48:00;;;;;;;17.00;11.43;;;;;;;-141.28;100.00;51178.25;5084245;28;20207;-77
2022/08/30 10:50:32;;;;;;;17.63;11.37;;;;;;;-141.28;100.00;51166.47;5088756;28;20212;-75
2022/08/30 10:53:10;;;;;;;18.33;11.43;;;;;;;-141.28;100.00;51225.34;5098983;28;20201;-74
2022/08/30 10:55:44;;;;;;;15.57;10.23;;;;;;;-141.28;100.00;51213.56;5074817;28;20682;-75
2022/08/30 10:58:14;;;;;;;23.93;11.93;;;;;;;-141.28;100.00;51239.09;5074686;28;20195;-76
2022/08/30 11:00:59;;;;;;;15.00;12.30;;;;;;;-141.28;100.00;51237.13;5074766;28;20259;-76
2022/08/30 11:04:09;;;;;;;16.87;11.50;;;;;;;-141.28;100.00;51221.44;5081494;28;20191;-75
2022/08/30 11:06:42;;;;;;;17.23;12.20;;;;;;;-141.28;100.00;51209.66;5113850;28;20568;-77
2022/08/30 11:09:41;;;;;;;23.43;11.67;;;;;;;-141.28;100.00;51154.69;5100641;28;20199;-75
2022/08/30 11:12:33;;;;;;;15.50;10.60;;;;;;;-141.28;100.00;51260.69;5067308;28;20204;-76
2022/08/30 11:15:15;;;;;;;18.53;9.80;;;;;;;-141.28;100.00;51264.63;5094334;28;20644;-78